Time;durP1;ratioP1;P1;durP2;ratioP2;P2;SDS_P1;SDS_P2;PMS_P1;PMS_P2;Temp;Humidity;BMP_temperature;BMP_pressure;BME280_temperature;BME280_humidity;BME280_pressure;Samples;Min_cycle;Max_cycle;Signal;HPM_P1;HPM_P2
2023/09/02 00:02:13;;;;;;;12.18;9.82;;;19.60;78.30;;;;;;5136647;27;20027;-68
2023/09/02 00:04:39;;;;;;;11.10;9.20;;;19.60;78.50;;;;;;5136316;27;20440;-68
2023/09/02 00:07:04;;;;;;;12.20;9.20;;;19.60;78.40;;;;;;5136704;28;20035;-68
2023/09/02 00:09:30;;;;;;;9.63;8.00;;;19.60;78.30;;;;;;5136812;27;20313;-68
2023/09/02 00:11:56;;;;;;;11.25;8.90;;;19.60;78.30;;;;;;5136532;27;20027;-69
2023/09/02 00:14:22;;;;;;;11.95;10.30;;;19.60;78.30;;;;;;5136695;27;20023;-69
2023/09/02 00:16:48;;;;;;;14.07;10.30;;;19.50;78.30;;;;;;5136226;27;20023;-69
2023/09/02 00:19:14;;;;;;;12.75;10.32;;;19.50;78.70;;;;;;5136163;28;20059;-68
2023/09/02 00:21:40;;;;;;;14.35;9.63;;;19.50;78.90;;;;;;5137385;27;20065;-68
2023/09/02 00:24:06;;;;;;;10.70;8.30;;;19.40;78.90;;;;;;5140258;27;20027;-68
2023/09/02 00:26:32;;;;;;;8.55;7.20;;;19.40;78.70;;;;;;5140210;27;20069;-68
2023/09/02 00:29:01;;;;;;;10.70;8.77;;;19.40;78.50;;;;;;5140821;27;20405;-67
2023/09/02 00:31:29;;;;;;;14.73;9.02;;;19.40;78.50;;;;;;5140167;27;20101;-67
2023/09/02 00:33:57;;;;;;;12.80;9.20;;;19.40;78.60;;;;;;5139911;27;20106;-67
2023/09/02 00:36:23;;;;;;;10.02;7.43;;;19.40;78.50;;;;;;5140386;27;20065;-68
2023/09/02 00:38:52;;;;;;;10.35;7.43;;;19.40;78.50;;;;;;5140372;27;20365;-67
2023/09/02 00:41:42;;;;;;;9.27;7.57;;;19.40;78.50;;;;;;5140045;27;20091;-68
2023/09/02 00:44:08;;;;;;;11.10;7.05;;;19.40;78.50;;;;;;5139386;27;20046;-68
2023/09/02 00:46:34;;;;;;;10.63;6.70;;;19.40;78.50;;;;;;5140146;27;20027;-68
2023/09/02 00:49:01;;;;;;;9.13;7.20;;;19.40;78.50;;;;;;5139864;27;20050;-68
2023/09/02 00:51:30;;;;;;;9.45;7.05;;;19.40;78.50;;;;;;5139849;27;20023;-68
2023/09/02 00:53:56;;;;;;;8.52;7.07;;;19.40;78.50;;;;;;5138741;27;20027;-68
2023/09/02 00:56:24;;;;;;;8.38;6.72;;;19.30;78.50;;;;;;5140249;27;20443;-68
2023/09/02 00:58:56;;;;;;;9.25;7.43;;;19.30;78.50;;;;;;5138661;27;20348;-67
2023/09/02 01:01:22;;;;;;;9.95;7.82;;;19.30;78.50;;;;;;5139948;27;20065;-68
2023/09/02 01:03:55;;;;;;;10.07;8.27;;;19.30;78.60;;;;;;5139557;27;20043;-68
2023/09/02 01:06:22;;;;;;;9.88;7.93;;;19.30;78.50;;;;;;5138849;27;20023;-67
2023/09/02 01:08:48;;;;;;;9.02;7.40;;;19.40;78.50;;;;;;5139461;27;20086;-67
2023/09/02 01:11:14;;;;;;;8.45;6.55;;;19.40;78.50;;;;;;5139702;27;20405;-67
2023/09/02 01:13:40;;;;;;;8.50;7.13;;;19.40;78.40;;;;;;5138342;27;20019;-69
2023/09/02 01:16:07;;;;;;;10.25;7.32;;;19.40;78.40;;;;;;5139432;27;20027;-69
2023/09/02 01:18:36;;;;;;;9.00;7.07;;;19.30;78.50;;;;;;5139245;27;20039;-67
2023/09/02 01:21:39;;;;;;;11.02;7.85;;;19.30;78.50;;;;;;5139181;27;20405;-67
2023/09/02 01:24:29;;;;;;;8.52;7.38;;;19.20;78.50;;;;;;5138192;27;20027;-67
2023/09/02 01:27:44;;;;;;;8.30;6.82;;;19.30;78.50;;;;;;5139383;27;20444;-67
2023/09/02 01:30:16;;;;;;;10.35;8.32;;;19.20;78.40;;;;;;5076179;28;20090;-68
2023/09/02 01:32:46;;;;;;;10.43;7.22;;;19.20;78.40;;;;;;5076498;28;20043;-68
2023/09/02 01:35:19;;;;;;;11.48;8.57;;;19.10;78.50;;;;;;5075870;28;20063;-68
2023/09/02 01:37:53;;;;;;;10.43;8.00;;;19.10;78.60;;;;;;5060061;28;20043;-67
2023/09/02 01:40:25;;;;;;;;;;;19.10;78.60;;;;;;5076603;28;20077;-67
2023/09/02 01:42:52;;;;;;;10.05;7.47;;;19.00;79.00;;;;;;5075894;28;19904;-67
2023/09/02 01:45:20;;;;;;;9.73;7.25;;;19.10;78.60;;;;;;5075822;28;20024;-67
2023/09/02 01:47:53;;;;;;;9.93;7.70;;;19.10;78.60;;;;;;5075816;28;20099;-67
2023/09/02 01:50:24;;;;;;;11.25;7.93;;;19.10;78.70;;;;;;5076104;28;20035;-67
2023/09/02 01:52:51;;;;;;;9.82;7.30;;;19.00;78.60;;;;;;5076206;28;20111;-67
2023/09/02 01:55:17;;;;;;;8.32;6.75;;;19.00;78.60;;;;;;5075945;28;20450;-67
2023/09/02 01:57:45;;;;;;;9.40;6.88;;;19.00;78.60;;;;;;5058928;28;20016;-67
2023/09/02 02:00:11;;;;;;;8.65;6.70;;;18.90;78.70;;;;;;5075788;28;20041;-68
2023/09/02 02:02:41;;;;;;;10.73;7.80;;;18.90;78.60;;;;;;5075464;28;20103;-68
2023/09/02 02:05:13;;;;;;;9.35;7.05;;;18.90;78.80;;;;;;5091855;27;20049;-68
2023/09/02 02:07:42;;;;;;;10.20;7.10;;;18.80;78.90;;;;;;5138385;27;20472;-68
2023/09/02 02:10:12;;;;;;;11.98;6.78;;;18.80;78.80;;;;;;5138677;27;20100;-68
2023/09/02 02:12:43;;;;;;;11.88;8.23;;;18.80;78.80;;;;;;5138482;27;20113;-68
2023/09/02 02:15:11;;;;;;;10.00;8.73;;;18.70;78.90;;;;;;5138263;27;20042;-68
2023/09/02 02:17:39;;;;;;;10.38;7.55;;;18.70;79.00;;;;;;5138137;27;20448;-68
2023/09/02 02:20:11;;;;;;;9.52;7.43;;;18.60;79.10;;;;;;5137122;27;20349;-68
2023/09/02 02:22:37;;;;;;;9.23;7.10;;;18.60;79.10;;;;;;5138038;27;20023;-68
2023/09/02 02:25:06;;;;;;;9.30;6.35;;;18.60;79.20;;;;;;5137977;27;20015;-67
2023/09/02 02:27:34;;;;;;;9.95;7.55;;;18.50;79.20;;;;;;5137898;27;20023;-66
2023/09/02 02:30:03;;;;;;;12.32;7.40;;;18.50;79.30;;;;;;5138417;27;20110;-67
2023/09/02 02:32:29;;;;;;;10.10;7.15;;;18.50;79.50;;;;;;5137720;27;20102;-67
2023/09/02 02:34:55;;;;;;;9.98;7.28;;;18.50;79.60;;;;;;5137615;27;20085;-67
2023/09/02 02:37:22;;;;;;;9.50;6.90;;;18.50;79.50;;;;;;5138312;27;20031;-67
2023/09/02 02:39:48;;;;;;;15.65;8.38;;;18.50;79.50;;;;;;5138236;27;20348;-68
2023/09/02 02:42:15;;;;;;;8.35;7.22;;;18.50;79.50;;;;;;5136759;27;20027;-68
2023/09/02 02:44:41;;;;;;;9.68;7.93;;;18.40;79.50;;;;;;5137455;27;20030;-67
2023/09/02 02:47:07;;;;;;;10.32;7.05;;;18.50;79.60;;;;;;5137775;27;20341;-67
2023/09/02 02:49:36;;;;;;;10.63;7.25;;;18.40;79.50;;;;;;5137491;27;20015;-66
2023/09/02 02:52:01;;;;;;;10.32;7.30;;;18.40;79.70;;;;;;5137962;27;20102;-67
2023/09/02 02:54:28;;;;;;;8.10;6.47;;;18.40;79.80;;;;;;5137409;27;20094;-67
2023/09/02 02:56:54;;;;;;;10.40;7.50;;;18.40;79.80;;;;;;5137403;27;20041;-67
2023/09/02 02:59:20;;;;;;;10.63;7.88;;;18.40;79.70;;;;;;5137560;27;20027;-67
2023/09/02 03:01:51;;;;;;;11.10;7.60;;;18.40;79.70;;;;;;5137543;27;20023;-67
2023/09/02 03:04:17;;;;;;;13.63;8.23;;;18.40;79.70;;;;;;5137395;27;20094;-67
2023/09/02 03:06:43;;;;;;;9.85;7.10;;;18.40;79.80;;;;;;5137036;27;20106;-68
2023/09/02 03:11:38;;;;;;;7.70;6.70;;;18.40;79.90;;;;;;5137060;27;20057;-68
2023/09/02 03:14:04;;;;;;;11.82;7.07;;;18.40;79.90;;;;;;5136998;27;20023;-68
2023/09/02 03:16:33;;;;;;;10.18;8.05;;;18.30;79.80;;;;;;5137216;27;20059;-67
2023/09/02 03:21:25;;;;;;;9.70;6.90;;;18.30;80.10;;;;;;5137693;27;20060;-68
2023/09/02 03:26:16;;;;;;;10.50;7.65;;;18.20;80.00;;;;;;5137286;27;20023;-67
2023/09/02 03:28:42;;;;;;;9.52;6.70;;;18.30;80.10;;;;;;5136809;27;20106;-68
2023/09/02 03:31:09;;;;;;;11.20;7.10;;;18.20;80.00;;;;;;5136772;27;20364;-68
2023/09/02 03:33:37;;;;;;;8.70;7.05;;;18.30;80.10;;;;;;5136520;27;20039;-67
2023/09/02 03:36:04;;;;;;;8.65;6.82;;;18.30;80.00;;;;;;5136960;27;20105;-67
2023/09/02 03:38:30;;;;;;;11.23;7.38;;;18.30;80.00;;;;;;5136864;27;20027;-69
2023/09/02 03:40:59;;;;;;;9.73;7.03;;;18.30;79.90;;;;;;5136587;27;20027;-66
2023/09/02 03:43:25;;;;;;;10.02;7.00;;;18.30;79.80;;;;;;5137071;27;20046;-67
2023/09/02 03:45:51;;;;;;;12.90;7.40;;;18.30;79.80;;;;;;5136387;27;20356;-67
2023/09/02 03:48:19;;;;;;;10.07;7.40;;;18.30;79.90;;;;;;5136550;27;20043;-67
2023/09/02 03:51:05;;;;;;;8.38;7.00;;;18.30;80.00;;;;;;5137013;27;20027;-67
2023/09/02 03:53:32;;;;;;;10.90;7.43;;;18.30;79.90;;;;;;5136286;27;20371;-66
2023/09/02 03:55:58;;;;;;;12.88;7.47;;;18.30;80.00;;;;;;5135751;27;20023;-67
2023/09/02 03:58:27;;;;;;;10.02;7.70;;;18.30;79.90;;;;;;5136661;27;20025;-69
2023/09/02 04:00:57;;;;;;;10.60;7.50;;;18.30;80.00;;;;;;5136311;27;20027;-66
2023/09/02 04:03:25;;;;;;;10.27;6.88;;;18.30;79.90;;;;;;5136179;27;20085;-67
2023/09/02 04:05:52;;;;;;;9.27;8.27;;;18.30;79.90;;;;;;5136218;27;20023;-69
2023/09/02 04:08:27;;;;;;;9.93;8.73;;;18.20;80.00;;;;;;5136273;27;20011;-67
2023/09/02 04:10:54;;;;;;;11.30;8.10;;;18.20;80.00;;;;;;5136813;27;20321;-68
2023/09/02 04:13:24;;;;;;;9.88;7.53;;;18.20;80.30;;;;;;5136426;27;20015;-68
2023/09/02 04:16:03;;;;;;;12.68;8.88;;;18.20;80.00;;;;;;5136453;27;20080;-68
2023/09/02 04:18:32;;;;;;;10.15;7.90;;;18.20;80.20;;;;;;5136490;27;20023;-68
2023/09/02 04:21:01;;;;;;;11.85;8.15;;;18.10;80.30;;;;;;5136169;27;20027;-68
2023/09/02 04:23:27;;;;;;;11.98;10.18;;;18.10;80.10;;;;;;5136240;27;20020;-68
2023/09/02 04:25:59;;;;;;;16.98;13.02;;;18.10;80.40;;;;;;5136033;27;20079;-67
2023/09/02 04:28:25;;;;;;;12.60;9.10;;;18.10;80.30;;;;;;5136666;27;20019;-68
2023/09/02 04:30:58;;;;;;;15.55;11.88;;;18.10;80.30;;;;;;5135046;28;20046;-67
2023/09/02 04:33:25;;;;;;;13.20;10.40;;;18.10;80.40;;;;;;5135584;27;20050;-67
2023/09/02 04:35:52;;;;;;;15.68;10.70;;;18.00;80.40;;;;;;5136541;27;20095;-67
2023/09/02 04:38:17;;;;;;;13.98;10.10;;;18.10;80.40;;;;;;5135980;27;20019;-68
2023/09/02 04:40:47;;;;;;;13.00;9.80;;;18.00;80.50;;;;;;5136483;27;20038;-67
2023/09/02 04:43:14;;;;;;;12.40;9.07;;;18.10;80.50;;;;;;5135823;28;20102;-67
2023/09/02 04:45:43;;;;;;;12.68;9.73;;;18.00;80.50;;;;;;5136100;27;20114;-68
2023/09/02 04:48:10;;;;;;;9.68;8.32;;;18.00;80.30;;;;;;5136459;27;20072;-68
2023/09/02 04:50:42;;;;;;;11.05;9.57;;;18.10;80.40;;;;;;5136143;28;20387;-67
2023/09/02 04:53:08;;;;;;;13.77;10.43;;;18.10;80.30;;;;;;5135725;28;20051;-68
2023/09/02 04:55:40;;;;;;;11.63;8.73;;;18.20;80.40;;;;;;5136123;27;20042;-68
2023/09/02 04:58:08;;;;;;;11.80;9.18;;;18.20;80.10;;;;;;5136400;27;20072;-67
2023/09/02 05:00:34;;;;;;;11.90;8.48;;;18.30;80.10;;;;;;5136283;27;20015;-68
2023/09/02 05:03:01;;;;;;;12.02;9.43;;;18.40;80.00;;;;;;5135583;27;20023;-68
2023/09/02 05:05:30;;;;;;;13.45;10.70;;;18.40;80.00;;;;;;5135594;27;20023;-68
2023/09/02 05:07:56;;;;;;;14.50;10.80;;;18.50;79.90;;;;;;5137200;27;20053;-68
2023/09/02 05:10:23;;;;;;;11.32;9.18;;;18.50;80.20;;;;;;5139739;27;20019;-68
2023/09/02 05:12:49;;;;;;;13.23;9.60;;;18.60;79.70;;;;;;5139619;27;20318;-68
2023/09/02 05:15:20;;;;;;;11.68;9.20;;;18.90;79.90;;;;;;5139422;27;20073;-67
2023/09/02 05:17:46;;;;;;;13.20;9.45;;;19.60;79.10;;;;;;5139341;27;20023;-67
2023/09/02 05:20:15;;;;;;;12.75;9.18;;;20.40;78.10;;;;;;5139255;27;20034;-67
2023/09/02 05:22:40;;;;;;;8.63;6.97;;;21.30;77.00;;;;;;5139228;27;20034;-64
2023/09/02 05:25:07;;;;;;;9.48;7.18;;;22.20;75.20;;;;;;5139299;27;20360;-64
2023/09/02 05:27:33;;;;;;;10.45;8.10;;;23.10;73.40;;;;;;5139868;27;20059;-64
2023/09/02 05:30:00;;;;;;;10.77;7.10;;;24.00;71.20;;;;;;5139180;27;20065;-65
2023/09/02 05:32:26;;;;;;;11.45;6.43;;;24.80;69.20;;;;;;5139151;27;20027;-65
2023/09/02 05:34:51;;;;;;;8.02;5.97;;;25.60;67.10;;;;;;5139163;27;20039;-64
2023/09/02 05:37:17;;;;;;;10.20;6.32;;;26.40;65.30;;;;;;5139202;27;20087;-65
2023/09/02 05:39:46;;;;;;;9.90;6.15;;;27.20;63.60;;;;;;5139224;27;20370;-68
2023/09/02 05:42:12;;;;;;;9.25;6.00;;;28.00;62.00;;;;;;5138946;27;20061;-67
2023/09/02 05:44:41;;;;;;;9.10;5.93;;;28.70;60.40;;;;;;5138845;27;20561;-67
2023/09/02 05:47:08;;;;;;;10.73;5.75;;;29.50;58.70;;;;;;5138972;27;20104;-68
2023/09/02 05:49:38;;;;;;;6.72;5.22;;;30.40;57.10;;;;;;5138697;27;20019;-67
2023/09/02 05:52:07;;;;;;;11.90;5.72;;;31.20;55.40;;;;;;5138754;27;20135;-67
2023/09/02 05:54:33;;;;;;;6.65;4.85;;;31.90;53.70;;;;;;5138614;27;20030;-68
2023/09/02 05:56:59;;;;;;;6.03;4.72;;;32.50;52.40;;;;;;5138638;27;20023;-69
2023/09/02 05:59:25;;;;;;;7.35;4.50;;;33.20;51.10;;;;;;5138860;27;20076;-68
2023/09/02 06:01:51;;;;;;;6.72;4.15;;;33.80;49.70;;;;;;5139312;27;20408;-68
2023/09/02 06:04:24;;;;;;;6.03;4.10;;;34.40;48.30;;;;;;5138452;27;20409;-69
2023/09/02 06:06:51;;;;;;;6.97;4.40;;;34.90;47.00;;;;;;5138904;27;20072;-69
2023/09/02 06:09:17;;;;;;;4.10;3.70;;;35.40;45.70;;;;;;5138383;27;20102;-69
2023/09/02 06:11:42;;;;;;;6.47;4.00;;;36.00;44.80;;;;;;5138870;27;20027;-69
2023/09/02 06:14:08;;;;;;;5.20;3.67;;;36.60;44.00;;;;;;5138537;27;20064;-69
2023/09/02 06:16:34;;;;;;;4.63;3.72;;;37.20;42.90;;;;;;5138264;27;20054;-69
2023/09/02 06:19:00;;;;;;;4.90;3.55;;;37.70;41.70;;;;;;5137085;27;20024;-69
2023/09/02 06:21:26;;;;;;;4.63;3.28;;;38.10;40.80;;;;;;5138397;27;20106;-68
2023/09/02 06:23:52;;;;;;;5.13;3.28;;;38.60;40.40;;;;;;5138079;27;20466;-69
2023/09/02 06:26:18;;;;;;;3.80;3.17;;;39.10;39.00;;;;;;5138295;27;20023;-68
2023/09/02 06:28:45;;;;;;;5.22;3.15;;;39.60;38.20;;;;;;5138059;27;20019;-69
2023/09/02 06:31:11;;;;;;;5.35;3.33;;;39.90;36.70;;;;;;5136859;27;20349;-69
2023/09/02 06:33:37;;;;;;;4.95;3.42;;;39.90;35.00;;;;;;5137801;27;20043;-68
2023/09/02 06:36:18;;;;;;;4.70;3.58;;;40.00;35.10;;;;;;5138171;27;20031;-68
2023/09/02 06:38:45;;;;;;;4.32;3.47;;;40.20;34.90;;;;;;5138081;27;20068;-69
2023/09/02 06:41:13;;;;;;;7.45;3.55;;;40.50;34.90;;;;;;5137789;27;20034;-69
2023/09/02 06:43:39;;;;;;;5.63;3.70;;;40.90;34.50;;;;;;5137658;27;20034;-69
2023/09/02 06:46:15;;;;;;;7.18;3.58;;;41.20;34.00;;;;;;5137602;27;20027;-69
2023/09/02 06:48:43;;;;;;;4.18;3.33;;;41.50;33.70;;;;;;5138313;27;20107;-69
2023/09/02 06:51:09;;;;;;;4.72;3.55;;;41.70;33.50;;;;;;5137585;27;20102;-70
2023/09/02 06:53:35;;;;;;;3.95;3.55;;;41.90;33.30;;;;;;5137763;27;20106;-69
2023/09/02 06:56:05;;;;;;;5.00;3.78;;;42.20;32.70;;;;;;5137437;27;20027;-69
2023/09/02 06:58:31;;;;;;;5.43;3.25;;;42.50;32.60;;;;;;5137440;27;20023;-69
2023/09/02 07:00:57;;;;;;;4.72;3.47;;;42.80;32.40;;;;;;5137433;27;20521;-70
2023/09/02 07:03:23;;;;;;;5.55;3.78;;;43.10;32.20;;;;;;5137828;27;20314;-69
2023/09/02 07:05:53;;;;;;;4.43;3.30;;;43.40;31.70;;;;;;5137240;27;20079;-69
2023/09/02 07:08:19;;;;;;;6.43;3.60;;;43.50;31.30;;;;;;5137812;27;20024;-70
2023/09/02 07:10:47;;;;;;;5.13;3.50;;;43.50;30.90;;;;;;5137488;27;20099;-70
2023/09/02 07:15:44;;;;;;;3.93;3.53;;;43.70;31.30;;;;;;5137678;27;20118;-70
2023/09/02 07:18:10;;;;;;;5.00;3.30;;;43.90;31.10;;;;;;5137105;27;20428;-70
2023/09/02 07:20:37;;;;;;;5.47;3.20;;;43.70;30.70;;;;;;5137090;27;20029;-70
2023/09/02 07:23:03;;;;;;;4.47;3.90;;;43.60;30.30;;;;;;5137373;27;20054;-70
2023/09/02 07:25:29;;;;;;;7.35;3.60;;;43.40;30.20;;;;;;5136834;27;20022;-70
2023/09/02 07:27:55;;;;;;;7.03;4.30;;;43.20;30.00;;;;;;5136918;27;20072;-70
2023/09/02 07:30:24;;;;;;;6.28;3.72;;;42.40;30.60;;;;;;5136950;27;20023;-70
2023/09/02 07:32:50;;;;;;;6.07;3.75;;;41.00;32.00;;;;;;5135724;27;20106;-70
2023/09/02 07:35:16;;;;;;;7.85;4.35;;;39.60;33.30;;;;;;5136746;27;20075;-70
2023/09/02 07:37:41;;;;;;;4.47;3.33;;;38.10;35.20;;;;;;5136996;27;20015;-70
2023/09/02 07:40:08;;;;;;;7.03;3.60;;;36.90;36.90;;;;;;5136678;27;20037;-69
2023/09/02 07:42:34;;;;;;;6.18;4.18;;;36.00;38.30;;;;;;5137117;27;20317;-69
2023/09/02 07:45:00;;;;;;;8.45;4.97;;;35.20;39.70;;;;;;5136588;27;20097;-69
2023/09/02 07:47:26;;;;;;;8.18;5.28;;;34.50;41.00;;;;;;5136782;27;20026;-68
2023/09/02 07:49:54;;;;;;;6.78;5.07;;;34.00;42.10;;;;;;5136572;27;20027;-69
2023/09/02 07:52:29;;;;;;;6.65;4.93;;;33.50;43.10;;;;;;5136712;27;20035;-69
2023/09/02 07:54:55;;;;;;;8.52;5.72;;;33.10;43.90;;;;;;5137090;27;20031;-69
2023/09/02 07:57:21;;;;;;;8.85;4.97;;;32.80;44.40;;;;;;5137022;27;20389;-69
2023/09/02 07:59:47;;;;;;;7.95;5.57;;;32.40;45.30;;;;;;5136464;27;20448;-69
2023/09/02 08:02:17;;;;;;;8.27;5.93;;;32.10;46.10;;;;;;5136693;27;20023;-68
2023/09/02 08:04:43;;;;;;;6.80;4.70;;;32.00;46.50;;;;;;5136346;27;20118;-69
2023/09/02 08:07:11;;;;;;;5.95;4.03;;;31.60;46.80;;;;;;5136310;27;20353;-69
2023/09/02 08:09:36;;;;;;;6.80;4.28;;;31.40;47.30;;;;;;5136858;27;20029;-69
2023/09/02 08:12:03;;;;;;;9.50;5.53;;;31.30;47.70;;;;;;5136295;27;20411;-69
2023/09/02 08:14:29;;;;;;;7.60;4.55;;;31.30;47.60;;;;;;5136405;27;20468;-70
2023/09/02 08:16:55;;;;;;;8.27;4.30;;;31.10;47.90;;;;;;5136270;27;20055;-70
2023/09/02 08:19:21;;;;;;;7.65;4.85;;;31.00;48.10;;;;;;5136255;27;20046;-70
2023/09/02 08:21:47;;;;;;;9.70;4.90;;;31.00;48.10;;;;;;5136809;27;20023;-70
2023/09/02 08:24:16;;;;;;;8.45;5.22;;;30.90;48.30;;;;;;5136385;27;20421;-70
2023/09/02 08:26:43;;;;;;;7.28;5.00;;;30.90;47.90;;;;;;5136096;27;20019;-69
2023/09/02 08:29:09;;;;;;;7.85;4.88;;;30.90;48.00;;;;;;5136157;27;20023;-70
2023/09/02 08:31:35;;;;;;;8.20;4.75;;;30.90;48.30;;;;;;5136146;27;20070;-69
2023/09/02 08:34:01;;;;;;;8.75;4.97;;;30.90;48.70;;;;;;5135729;27;20054;-70
2023/09/02 08:36:27;;;;;;;8.68;4.57;;;30.80;48.70;;;;;;5136691;27;20355;-70
2023/09/02 08:38:53;;;;;;;7.55;4.88;;;30.70;48.90;;;;;;5136039;27;20027;-70
2023/09/02 08:41:26;;;;;;;8.07;4.57;;;30.70;49.10;;;;;;5136073;27;20049;-70
2023/09/02 08:43:54;;;;;;;5.32;4.00;;;30.70;49.30;;;;;;5139044;27;20110;-69
2023/09/02 08:46:21;;;;;;;7.65;5.18;;;30.60;49.60;;;;;;5139898;27;20516;-69
2023/09/02 08:48:57;;;;;;;9.73;4.85;;;30.60;49.70;;;;;;5140286;27;20340;-70
2023/09/02 08:51:25;;;;;;;6.10;4.47;;;30.80;49.90;;;;;;5139802;27;20247;-71
2023/09/02 08:53:53;;;;;;;6.63;4.88;;;30.80;50.10;;;;;;5139811;27;20038;-70
2023/09/02 08:56:20;;;;;;;9.60;6.75;;;30.80;49.80;;;;;;5139879;27;20034;-69
2023/09/02 08:58:48;;;;;;;6.57;4.60;;;30.60;49.60;;;;;;5140257;27;20027;-70
2023/09/02 09:01:18;;;;;;;6.38;4.22;;;30.40;50.30;;;;;;5138788;27;20490;-70
2023/09/02 09:03:49;;;;;;;7.13;4.43;;;30.30;50.60;;;;;;5121850;27;20035;-70
2023/09/02 09:06:17;;;;;;;9.10;5.13;;;30.40;50.30;;;;;;5139899;27;20023;-69
2023/09/02 09:08:45;;;;;;;7.32;4.07;;;30.40;50.10;;;;;;5139642;27;20478;-70
2023/09/02 09:11:13;;;;;;;6.28;4.30;;;30.50;50.00;;;;;;5139611;27;20026;-70
2023/09/02 09:13:44;;;;;;;9.77;5.60;;;30.60;49.80;;;;;;5140020;27;20015;-69
2023/09/02 09:16:15;;;;;;;8.40;5.32;;;30.60;49.40;;;;;;5128452;27;20064;-70
2023/09/02 09:18:42;;;;;;;8.70;4.90;;;30.60;49.40;;;;;;5119200;28;20031;-70
2023/09/02 09:21:19;;;;;;;7.30;4.80;;;30.50;49.60;;;;;;5119125;28;20394;-69
2023/09/02 09:23:45;;;;;;;12.20;7.15;;;30.50;49.80;;;;;;5117678;28;20023;-69
2023/09/02 09:26:18;;;;;;;7.30;5.00;;;30.40;50.20;;;;;;5118607;28;20030;-69
2023/09/02 09:28:52;;;;;;;6.95;5.10;;;30.40;50.30;;;;;;5118676;28;20106;-69
2023/09/02 09:31:23;;;;;;;7.60;4.90;;;30.40;50.40;;;;;;5118265;28;20023;-68
2023/09/02 09:33:55;;;;;;;8.27;5.20;;;30.30;50.40;;;;;;5117503;28;20497;-69
2023/09/02 09:36:23;;;;;;;7.57;4.20;;;30.30;50.40;;;;;;5118863;27;20445;-70
2023/09/02 09:39:02;;;;;;;8.15;4.13;;;30.20;50.50;;;;;;5118485;28;20032;-70
2023/09/02 09:44:16;;;;;;;8.40;5.47;;;30.20;50.70;;;;;;5118686;28;20059;-70
2023/09/02 09:46:51;;;;;;;6.13;4.20;;;30.30;49.70;;;;;;5118476;28;20015;-69
2023/09/02 09:49:28;;;;;;;8.75;4.00;;;30.30;50.30;;;;;;5118210;28;20109;-69
2023/09/02 09:52:00;;;;;;;8.55;4.40;;;30.40;50.30;;;;;;5118176;28;20349;-70
2023/09/02 09:54:38;;;;;;;5.85;3.90;;;30.50;50.30;;;;;;5118347;27;20036;-70
2023/09/02 09:57:09;;;;;;;6.53;4.10;;;30.50;50.20;;;;;;5118418;28;20145;-69
2023/09/02 09:59:36;;;;;;;6.20;3.85;;;30.60;50.20;;;;;;5118070;28;20115;-69
2023/09/02 10:02:10;;;;;;;8.38;4.78;;;30.70;49.80;;;;;;5118537;28;20027;-69
2023/09/02 10:04:48;;;;;;;6.35;4.18;;;30.80;49.40;;;;;;5118002;28;20031;-70
2023/09/02 10:07:26;;;;;;;5.57;3.97;;;30.70;49.40;;;;;;5118439;28;20434;-69
2023/09/02 10:09:55;;;;;;;6.80;4.35;;;30.60;49.20;;;;;;5118467;28;20153;-68
2023/09/02 10:12:22;;;;;;;6.25;4.07;;;30.60;48.70;;;;;;5118120;28;20173;-67
2023/09/02 10:14:49;;;;;;;6.85;4.00;;;30.50;48.80;;;;;;5117681;28;20031;-68
2023/09/02 10:17:16;;;;;;;9.38;3.80;;;30.50;48.80;;;;;;5117696;28;20027;-68
2023/09/02 10:19:46;;;;;;;5.93;3.78;;;30.50;49.00;;;;;;5117096;28;20087;-68
2023/09/02 10:22:19;;;;;;;4.93;3.55;;;30.50;49.20;;;;;;5117871;28;20024;-68
2023/09/02 10:25:04;;;;;;;7.35;3.60;;;30.50;49.30;;;;;;5118050;28;20108;-67
2023/09/02 10:27:43;;;;;;;5.40;3.92;;;30.60;49.50;;;;;;5117458;28;20023;-69
2023/09/02 10:30:25;;;;;;;7.38;4.38;;;30.60;48.90;;;;;;5117449;28;20035;-68
2023/09/02 10:35:27;;;;;;;6.40;4.63;;;30.40;49.10;;;;;;5118414;27;20531;-68
2023/09/02 10:38:00;;;;;;;7.75;4.45;;;30.40;48.90;;;;;;5117942;28;20168;-67
2023/09/02 10:40:40;;;;;;;6.43;4.72;;;30.40;48.70;;;;;;5117605;28;20114;-66
2023/09/02 10:43:07;;;;;;;8.00;4.50;;;30.20;49.10;;;;;;5117573;28;20020;-67
2023/09/02 10:45:33;;;;;;;7.25;4.65;;;30.00;49.10;;;;;;5117142;28;20024;-68
2023/09/02 10:48:00;;;;;;;8.15;4.65;;;29.90;49.70;;;;;;5117111;28;20024;-68
2023/09/02 10:50:27;;;;;;;8.60;4.03;;;29.90;50.00;;;;;;5116225;28;20435;-68
2023/09/02 10:52:53;;;;;;;5.80;4.20;;;30.00;50.20;;;;;;5117482;28;20090;-68
2023/09/02 10:55:21;;;;;;;7.65;4.45;;;30.00;49.90;;;;;;5117253;28;20038;-68
2023/09/02 10:57:56;;;;;;;6.60;4.07;;;30.00;50.00;;;;;;5116008;28;20361;-67
2023/09/02 11:00:24;;;;;;;7.55;4.25;;;30.00;49.90;;;;;;5117462;28;20028;-67
2023/09/02 11:02:52;;;;;;;8.63;4.47;;;30.00;49.80;;;;;;5117027;28;20036;-68
2023/09/02 11:05:19;;;;;;;8.40;4.80;;;29.90;49.70;;;;;;5116518;28;20039;-67
2023/09/02 11:07:46;;;;;;;6.40;4.20;;;29.90;49.80;;;;;;5116970;28;20020;-68
2023/09/02 11:10:16;;;;;;;6.55;4.35;;;29.90;50.00;;;;;;5116963;28;20424;-68
2023/09/02 11:12:57;;;;;;;9.02;5.20;;;29.90;49.90;;;;;;5116880;28;20101;-67
2023/09/02 11:15:23;;;;;;;6.85;4.30;;;29.90;49.60;;;;;;5117152;28;20130;-68
2023/09/02 11:17:56;;;;;;;6.65;4.20;;;29.90;49.80;;;;;;5117106;28;20108;-68
2023/09/02 11:20:25;;;;;;;5.80;4.00;;;29.90;49.80;;;;;;5116547;28;20024;-68
2023/09/02 11:22:54;;;;;;;10.32;4.75;;;29.90;50.10;;;;;;5116305;28;20076;-68
2023/09/02 11:25:39;;;;;;;8.07;5.30;;;29.90;49.90;;;;;;5115449;28;20359;-68
2023/09/02 11:28:05;;;;;;;7.75;4.13;;;29.90;49.40;;;;;;5116369;28;20110;-68
2023/09/02 11:30:34;;;;;;;7.53;4.63;;;29.90;49.70;;;;;;5116609;28;20059;-68
2023/09/02 11:33:04;;;;;;;8.55;4.72;;;30.00;49.60;;;;;;5116462;28;20023;-67
2023/09/02 11:35:35;;;;;;;8.65;5.38;;;30.00;49.70;;;;;;5115506;28;20101;-68
2023/09/02 11:38:04;;;;;;;7.15;4.82;;;30.00;49.80;;;;;;5116811;28;20501;-68
2023/09/02 11:40:30;;;;;;;7.55;4.50;;;30.00;49.80;;;;;;5115215;28;20023;-68
2023/09/02 11:43:00;;;;;;;7.10;4.22;;;30.10;49.80;;;;;;5116357;28;20020;-67
2023/09/02 11:45:38;;;;;;;6.85;4.13;;;30.20;49.90;;;;;;5116653;28;20099;-68
2023/09/02 11:48:06;;;;;;;6.93;4.15;;;30.20;49.90;;;;;;5116350;28;20424;-68
2023/09/02 11:50:32;;;;;;;10.43;4.85;;;30.20;50.00;;;;;;5116546;28;20015;-68
2023/09/02 11:52:58;;;;;;;7.25;4.28;;;30.20;50.20;;;;;;5116370;27;20020;-67
2023/09/02 11:55:25;;;;;;;5.95;4.03;;;30.20;50.00;;;;;;5116239;28;20020;-68
2023/09/02 11:57:52;;;;;;;7.75;4.53;;;30.20;50.10;;;;;;5115910;28;20465;-68
2023/09/02 12:00:25;;;;;;;7.32;4.10;;;30.20;49.80;;;;;;5115872;28;20024;-67
2023/09/02 12:02:58;;;;;;;6.78;4.63;;;30.20;49.90;;;;;;5116071;28;20120;-67
2023/09/02 12:05:29;;;;;;;8.20;5.30;;;30.20;49.90;;;;;;5116130;28;20027;-68
2023/09/02 12:07:57;;;;;;;7.38;4.60;;;30.10;50.00;;;;;;5115927;28;20030;-67
2023/09/02 12:10:26;;;;;;;8.32;4.75;;;30.10;49.90;;;;;;5116303;28;20016;-67
2023/09/02 12:12:53;;;;;;;7.53;4.55;;;30.10;49.90;;;;;;5115853;28;20522;-67
2023/09/02 12:15:37;;;;;;;7.45;4.15;;;30.00;50.10;;;;;;5115995;28;20023;-67
2023/09/02 12:18:04;;;;;;;6.10;3.70;;;30.10;50.00;;;;;;5118187;28;20069;-67
2023/09/02 12:20:32;;;;;;;4.85;3.85;;;30.20;50.10;;;;;;5120018;28;20109;-67
2023/09/02 12:22:58;;;;;;;8.00;4.75;;;30.20;50.00;;;;;;5119895;28;20106;-69
2023/09/02 12:25:24;;;;;;;6.38;4.72;;;30.20;49.90;;;;;;5119282;28;20066;-67
2023/09/02 12:27:51;;;;;;;6.40;4.50;;;30.20;49.80;;;;;;5119807;28;20027;-68
2023/09/02 12:30:31;;;;;;;8.05;4.20;;;30.20;49.60;;;;;;5119220;28;20027;-67
2023/09/02 12:33:05;;;;;;;6.47;4.15;;;30.20;49.60;;;;;;5120188;28;20019;-67
2023/09/02 12:35:35;;;;;;;7.10;4.20;;;30.10;49.80;;;;;;5119114;28;20066;-67
2023/09/02 12:38:03;;;;;;;7.68;4.35;;;30.00;49.80;;;;;;5118674;28;20028;-67
2023/09/02 12:40:33;;;;;;;7.55;4.20;;;30.00;50.20;;;;;;5119562;28;20390;-66
2023/09/02 12:43:00;;;;;;;7.35;4.38;;;30.00;50.40;;;;;;5119726;28;20019;-67
2023/09/02 12:45:31;;;;;;;5.38;3.88;;;30.20;50.20;;;;;;5119523;28;20019;-68
2023/09/02 12:48:02;;;;;;;8.07;3.80;;;30.10;50.10;;;;;;5119742;28;20042;-68
2023/09/02 12:50:32;;;;;;;6.72;4.15;;;30.20;50.30;;;;;;5120090;28;20020;-68
2023/09/02 12:53:04;;;;;;;6.18;4.50;;;30.30;50.20;;;;;;5119293;28;20034;-67
2023/09/02 12:55:32;;;;;;;6.63;4.37;;;30.20;49.50;;;;;;5119380;28;20028;-67
2023/09/02 12:58:02;;;;;;;6.90;4.57;;;30.20;49.40;;;;;;5119288;28;20043;-67
2023/09/02 13:00:33;;;;;;;6.68;4.22;;;30.10;49.50;;;;;;5119184;28;20456;-67
2023/09/02 13:03:04;;;;;;;7.05;4.18;;;30.10;49.60;;;;;;5119675;28;20490;-67
2023/09/02 13:05:30;;;;;;;9.20;4.65;;;30.10;49.60;;;;;;5119167;28;20103;-67
2023/09/02 13:07:59;;;;;;;6.05;3.88;;;30.10;49.70;;;;;;5119044;28;20034;-67